Bob Hope Airport Burbank US
ICAO: KBUR
IATA: BUR
Category: Medium
Scheduled Services: Yes

Elevation: 778 ft
TransAlt. 18000 ft.

Airport Communications:
SOCAL APP/DEP:120.4
ATIS:134.5
CLNC DEL:118
GND:123.9
HAWTHORNE RDO:122.35
TWR:118.7
UNICOM:122.95

KBUR Zoom In..

If Map Doesn't Load, Click Here

Runways:

(A) RW 08 length 5802 ft width 150 ft
ILS 109.50 / hdg 76

(B) RW 15 length 6885 ft width 150 ft
---- / hdg 152

(C) RW 26 length 5802 ft width 150 ft
---- / hdg 256

(D) RW 33 length 6885 ft width 150 ft
---- / hdg 332

Location; KBUR
Day. 26 / Time. 10.11 Zulu
* Altimeter: 29.94
* Temperature: 16° c. 60.8°f.
* Wind from: 000° Speed 00 kn.
Dewpoint: 16° c.
Visibility: 5 Statute Miles.
Clouds: Overcast 1000 ft.
Conditions: Mist.

KBUR 261011Z 00000KT 5SM BR OVC010 16/16 A2994 RMK AO2 T01610156


Wind - Calm.

 
 
jpsmedia.com for Web Design worldairports.se 2018   terms of use